sensor_id;sensor_type;location;lat;lon;timestamp;pressure;altitude;pressure_sealevel;temperature;humidity
33404;BME280;19751;40.274;18.268;2023-04-01T00:02:18;100473.59;;;14.92;100.00
33404;BME280;19751;40.274;18.268;2023-04-01T00:04:43;100473.00;;;14.90;100.00
33404;BME280;19751;40.274;18.268;2023-04-01T00:07:09;100478.44;;;14.90;100.00
33404;BME280;19751;40.274;18.268;2023-04-01T00:09:35;100469.03;;;14.93;100.00
33404;BME280;19751;40.274;18.268;2023-04-01T00:12:00;100480.47;;;14.95;100.00
33404;BME280;19751;40.274;18.268;2023-04-01T00:14:26;100486.72;;;14.96;100.00
33404;BME280;19751;40.274;18.268;2023-04-01T00:16:51;100482.13;;;14.96;100.00
33404;BME280;19751;40.274;18.268;2023-04-01T00:19:18;100473.78;;;14.98;100.00
33404;BME280;19751;40.274;18.268;2023-04-01T00:21:43;100474.59;;;14.98;100.00
33404;BME280;19751;40.274;18.268;2023-04-01T00:24:09;100470.81;;;14.99;100.00
33404;BME280;19751;40.274;18.268;2023-04-01T00:26:35;100475.66;;;14.97;100.00
33404;BME280;19751;40.274;18.268;2023-04-01T00:29:00;100477.91;;;15.00;100.00
33404;BME280;19751;40.274;18.268;2023-04-01T00:31:26;100474.16;;;15.01;100.00
33404;BME280;19751;40.274;18.268;2023-04-01T00:33:52;100475.81;;;15.02;100.00
33404;BME280;19751;40.274;18.268;2023-04-01T00:36:20;100480.41;;;15.02;100.00
33404;BME280;19751;40.274;18.268;2023-04-01T00:38:47;100485.81;;;15.02;100.00
33404;BME280;19751;40.274;18.268;2023-04-01T00:41:13;100481.44;;;15.01;100.00
33404;BME280;19751;40.274;18.268;2023-04-01T00:43:45;100484.16;;;15.01;100.00
33404;BME280;19751;40.274;18.268;2023-04-01T00:46:11;100482.66;;;15.05;100.00
33404;BME280;19751;40.274;18.268;2023-04-01T00:48:41;100486.19;;;15.05;100.00
33404;BME280;19751;40.274;18.268;2023-04-01T00:51:13;100484.91;;;15.08;100.00
33404;BME280;19751;40.274;18.268;2023-04-01T00:53:45;100476.53;;;15.09;100.00
33404;BME280;19751;40.274;18.268;2023-04-01T00:56:15;100472.19;;;15.08;100.00
33404;BME280;19751;40.274;18.268;2023-04-01T00:58:44;100465.34;;;15.06;100.00
33404;BME280;19751;40.274;18.268;2023-04-01T01:01:11;100459.28;;;15.04;100.00
33404;BME280;19751;40.274;18.268;2023-04-01T01:03:37;100463.06;;;15.03;100.00
33404;BME280;19751;40.274;18.268;2023-04-01T01:11:25;100463.06;;;15.03;100.00
33404;BME280;19751;40.274;18.268;2023-04-01T01:14:12;100462.00;;;15.04;100.00
33404;BME280;19751;40.274;18.268;2023-04-01T01:16:44;100473.25;;;15.07;100.00
33404;BME280;19751;40.274;18.268;2023-04-01T01:34:22;100447.75;;;15.08;100.00
33404;BME280;19751;40.274;18.268;2023-04-01T01:36:55;100449.41;;;15.09;100.00
33404;BME280;19751;40.274;18.268;2023-04-01T01:39:26;100441.50;;;15.08;100.00
33404;BME280;19751;40.274;18.268;2023-04-01T01:41:55;100439.88;;;15.07;100.00
33404;BME280;19751;40.274;18.268;2023-04-01T01:44:23;100433.63;;;15.06;100.00
33404;BME280;19751;40.274;18.268;2023-04-01T01:46:51;100420.06;;;15.06;100.00
33404;BME280;19751;40.274;18.268;2023-04-01T01:49:17;100416.50;;;15.06;100.00
33404;BME280;19751;40.274;18.268;2023-04-01T01:51:44;100409.88;;;15.02;100.00
33404;BME280;19751;40.274;18.268;2023-04-01T01:54:14;100404.91;;;14.99;100.00
33404;BME280;19751;40.274;18.268;2023-04-01T01:56:41;100389.47;;;14.99;100.00
33404;BME280;19751;40.274;18.268;2023-04-01T01:59:09;100369.03;;;14.97;100.00
33404;BME280;19751;40.274;18.268;2023-04-01T02:01:40;100364.28;;;14.92;100.00
33404;BME280;19751;40.274;18.268;2023-04-01T02:04:08;100358.03;;;14.91;100.00
33404;BME280;19751;40.274;18.268;2023-04-01T02:06:38;100354.28;;;14.92;100.00
33404;BME280;19751;40.274;18.268;2023-04-01T02:09:08;100350.97;;;14.90;100.00
33404;BME280;19751;40.274;18.268;2023-04-01T02:11:53;100339.06;;;14.91;100.00
33404;BME280;19751;40.274;18.268;2023-04-01T02:17:07;100309.53;;;14.83;100.00
33404;BME280;19751;40.274;18.268;2023-04-01T02:19:40;100327.13;;;14.81;100.00
33404;BME280;19751;40.274;18.268;2023-04-01T02:22:12;100361.97;;;14.77;100.00
33404;BME280;19751;40.274;18.268;2023-04-01T02:24:40;100382.47;;;14.73;100.00
33404;BME280;19751;40.274;18.268;2023-04-01T02:27:09;100375.00;;;14.69;100.00
33404;BME280;19751;40.274;18.268;2023-04-01T02:29:35;100386.69;;;14.69;100.00
33404;BME280;19751;40.274;18.268;2023-04-01T02:32:02;100400.44;;;14.67;100.00
33404;BME280;19751;40.274;18.268;2023-04-01T02:34:28;100412.13;;;14.68;100.00
33404;BME280;19751;40.274;18.268;2023-04-01T02:36:55;100421.91;;;14.69;100.00
33404;BME280;19751;40.274;18.268;2023-04-01T02:39:21;100412.13;;;14.68;100.00
33404;BME280;19751;40.274;18.268;2023-04-01T02:41:47;100424.16;;;14.72;100.00
33404;BME280;19751;40.274;18.268;2023-04-01T02:44:13;100425.22;;;14.71;100.00
33404;BME280;19751;40.274;18.268;2023-04-01T02:46:40;100431.94;;;14.69;100.00
33404;BME280;19751;40.274;18.268;2023-04-01T02:49:05;100418.16;;;14.70;100.00
33404;BME280;19751;40.274;18.268;2023-04-01T02:51:32;100419.78;;;14.71;100.00
33404;BME280;19751;40.274;18.268;2023-04-01T02:53:57;100417.09;;;14.71;100.00
33404;BME280;19751;40.274;18.268;2023-04-01T02:56:23;100422.50;;;14.71;100.00
33404;BME280;19751;40.274;18.268;2023-04-01T02:58:48;100416.50;;;14.69;100.00
33404;BME280;19751;40.274;18.268;2023-04-01T03:01:14;100411.06;;;14.69;100.00
33404;BME280;19751;40.274;18.268;2023-04-01T03:03:40;100413.16;;;14.67;100.00
33404;BME280;19751;40.274;18.268;2023-04-01T03:06:07;100407.75;;;14.67;100.00
33404;BME280;19751;40.274;18.268;2023-04-01T03:08:33;100395.25;;;14.66;100.00
33404;BME280;19751;40.274;18.268;2023-04-01T03:10:59;100393.81;;;14.63;100.00
33404;BME280;19751;40.274;18.268;2023-04-01T03:13:24;100386.72;;;14.62;100.00
33404;BME280;19751;40.274;18.268;2023-04-01T03:15:50;100398.63;;;14.61;100.00
33404;BME280;19751;40.274;18.268;2023-04-01T03:18:16;100390.28;;;14.63;100.00
33404;BME280;19751;40.274;18.268;2023-04-01T03:20:41;100383.59;;;14.65;100.00
33404;BME280;19751;40.274;18.268;2023-04-01T03:23:07;100376.50;;;14.64;100.00
33404;BME280;19751;40.274;18.268;2023-04-01T03:25:33;100380.25;;;14.63;100.00
33404;BME280;19751;40.274;18.268;2023-04-01T03:27:58;100382.38;;;14.61;100.00
33404;BME280;19751;40.274;18.268;2023-04-01T03:30:25;100385.31;;;14.60;100.00
33404;BME280;19751;40.274;18.268;2023-04-01T03:32:51;100375.31;;;14.60;100.00
33404;BME280;19751;40.274;18.268;2023-04-01T03:35:16;100378.22;;;14.59;100.00
33404;BME280;19751;40.274;18.268;2023-04-01T03:37:42;100375.97;;;14.56;100.00
33404;BME280;19751;40.274;18.268;2023-04-01T03:40:08;100369.69;;;14.55;100.00
33404;BME280;19751;40.274;18.268;2023-04-01T03:42:34;100375.97;;;14.56;100.00
33404;BME280;19751;40.274;18.268;2023-04-01T03:45:00;100382.22;;;14.56;100.00
33404;BME280;19751;40.274;18.268;2023-04-01T03:47:25;100380.53;;;14.55;100.00
33404;BME280;19751;40.274;18.268;2023-04-01T03:49:51;100390.34;;;14.56;100.00
33404;BME280;19751;40.274;18.268;2023-04-01T03:52:16;100399.31;;;14.57;100.00
33404;BME280;19751;40.274;18.268;2023-04-01T03:54:42;100397.88;;;14.54;100.00
33404;BME280;19751;40.274;18.268;2023-04-01T03:57:07;100394.34;;;14.54;100.00
33404;BME280;19751;40.274;18.268;2023-04-01T03:59:33;100376.84;;;14.50;100.00
33404;BME280;19751;40.274;18.268;2023-04-01T04:01:59;100382.91;;;14.52;100.00
33404;BME280;19751;40.274;18.268;2023-04-01T04:04:25;100376.84;;;14.50;100.00
33404;BME280;19751;40.274;18.268;2023-04-01T04:06:51;100376.84;;;14.50;100.00
33404;BME280;19751;40.274;18.268;2023-04-01T04:09:17;100366.22;;;14.48;100.00
33404;BME280;19751;40.274;18.268;2023-04-01T04:11:42;100364.53;;;14.47;100.00
33404;BME280;19751;40.274;18.268;2023-04-01T04:14:08;100374.34;;;14.48;100.00
33404;BME280;19751;40.274;18.268;2023-04-01T04:16:35;100360.81;;;14.48;100.00
33404;BME280;19751;40.274;18.268;2023-04-01T04:19:02;100347.47;;;14.47;100.00
33404;BME280;19751;40.274;18.268;2023-04-01T04:21:28;100339.56;;;14.45;100.00
33404;BME280;19751;40.274;18.268;2023-04-01T04:23:53;100332.50;;;14.44;100.00
33404;BME280;19751;40.274;18.268;2023-04-01T04:26:19;100311.66;;;14.45;100.00
33404;BME280;19751;40.274;18.268;2023-04-01T04:28:45;100320.84;;;14.43;100.00
33404;BME280;19751;40.274;18.268;2023-04-01T04:31:10;100339.19;;;14.41;100.00
33404;BME280;19751;40.274;18.268;2023-04-01T04:33:36;100328.59;;;14.40;100.00
33404;BME280;19751;40.274;18.268;2023-04-01T04:36:03;100312.31;;;14.40;100.00
33404;BME280;19751;40.274;18.268;2023-04-01T04:38:29;100319.25;;;14.36;100.00
33404;BME280;19751;40.274;18.268;2023-04-01T04:40:54;100310.28;;;14.35;100.00
33404;BME280;19751;40.274;18.268;2023-04-01T04:43:20;100305.91;;;14.34;100.00
33404;BME280;19751;40.274;18.268;2023-04-01T04:45:46;100323.84;;;14.35;100.00
33404;BME280;19751;40.274;18.268;2023-04-01T04:48:14;100336.31;;;14.36;100.00
33404;BME280;19751;40.274;18.268;2023-04-01T04:50:47;100335.25;;;14.37;100.00
33404;BME280;19751;40.274;18.268;2023-04-01T04:53:15;100331.50;;;14.38;100.00
33404;BME280;19751;40.274;18.268;2023-04-01T04:55:48;100335.88;;;14.39;100.00
33404;BME280;19751;40.274;18.268;2023-04-01T04:58:15;100327.75;;;14.39;100.00
33404;BME280;19751;40.274;18.268;2023-04-01T05:00:41;100315.84;;;14.40;100.00
33404;BME280;19751;40.274;18.268;2023-04-01T05:03:06;100317.50;;;14.41;100.00
33404;BME280;19751;40.274;18.268;2023-04-01T05:05:33;100313.75;;;14.42;100.00
33404;BME280;19751;40.274;18.268;2023-04-01T05:07:59;100318.13;;;14.43;100.00
33404;BME280;19751;40.274;18.268;2023-04-01T05:10:25;100320.84;;;14.43;100.00
33404;BME280;19751;40.274;18.268;2023-04-01T05:12:50;100310.00;;;14.43;100.00
33404;BME280;19751;40.274;18.268;2023-04-01T05:15:16;100321.66;;;14.44;100.00
33404;BME280;19751;40.274;18.268;2023-04-01T05:17:42;100318.72;;;14.46;100.00
33404;BME280;19751;40.274;18.268;2023-04-01T05:20:07;100328.28;;;14.48;100.00
33404;BME280;19751;40.274;18.268;2023-04-01T05:22:33;100341.00;;;14.48;100.00
33404;BME280;19751;40.274;18.268;2023-04-01T05:24:59;100342.69;;;14.49;100.00
33404;BME280;19751;40.274;18.268;2023-04-01T05:27:24;100347.66;;;14.52;100.00
33404;BME280;19751;40.274;18.268;2023-04-01T05:29:50;100339.06;;;14.55;100.00
33404;BME280;19751;40.274;18.268;2023-04-01T05:32:15;100335.09;;;14.57;100.00
33404;BME280;19751;40.274;18.268;2023-04-01T05:34:41;100329.00;;;14.62;100.00
33404;BME280;19751;40.274;18.268;2023-04-01T05:37:06;100308.94;;;14.63;100.00
33404;BME280;19751;40.274;18.268;2023-04-01T05:39:39;100316.88;;;14.64;100.00
33404;BME280;19751;40.274;18.268;2023-04-01T05:42:06;100319.13;;;14.67;100.00
33404;BME280;19751;40.274;18.268;2023-04-01T05:44:32;100331.41;;;14.70;100.00
33404;BME280;19751;40.274;18.268;2023-04-01T05:46:58;100336.38;;;14.73;100.00
33404;BME280;19751;40.274;18.268;2023-04-01T05:49:23;100335.91;;;14.76;100.00
33404;BME280;19751;40.274;18.268;2023-04-01T05:51:53;100340.75;;;14.74;100.00
33404;BME280;19751;40.274;18.268;2023-04-01T05:54:19;100339.66;;;14.75;100.00
33404;BME280;19751;40.274;18.268;2023-04-01T05:56:45;100333.44;;;14.75;100.00
33404;BME280;19751;40.274;18.268;2023-04-01T05:59:11;100338.84;;;14.75;100.00
33404;BME280;19751;40.274;18.268;2023-04-01T06:01:37;100334.63;;;14.79;100.00
33404;BME280;19751;40.274;18.268;2023-04-01T06:04:02;100335.00;;;14.82;100.00
33404;BME280;19751;40.274;18.268;2023-04-01T06:06:34;100343.53;;;14.86;100.00
33404;BME280;19751;40.274;18.268;2023-04-01T06:09:12;100333.88;;;14.90;100.00
33404;BME280;19751;40.274;18.268;2023-04-01T06:15:02;100331.69;;;14.99;100.00
33404;BME280;19751;40.274;18.268;2023-04-01T06:20:43;100350.34;;;15.07;100.00
33404;BME280;19751;40.274;18.268;2023-04-01T06:26:40;100365.63;;;15.20;100.00
33404;BME280;19751;40.274;18.268;2023-04-01T06:29:25;100362.84;;;15.26;100.00
33404;BME280;19751;40.274;18.268;2023-04-01T06:46:09;100321.97;;;15.51;100.00
33404;BME280;19751;40.274;18.268;2023-04-01T06:56:27;100313.91;;;15.86;100.00
33404;BME280;19751;40.274;18.268;2023-04-01T06:59:05;100312.13;;;15.92;100.00
33404;BME280;19751;40.274;18.268;2023-04-01T07:01:42;100305.53;;;16.00;100.00
33404;BME280;19751;40.274;18.268;2023-04-01T07:04:19;100300.81;;;16.07;100.00
33404;BME280;19751;40.274;18.268;2023-04-01T07:09:24;100312.41;;;16.26;100.00
33404;BME280;19751;40.274;18.268;2023-04-01T07:11:58;100315.59;;;16.34;100.00
33404;BME280;19751;40.274;18.268;2023-04-01T07:14:33;100313.81;;;16.40;100.00
33404;BME280;19751;40.274;18.268;2023-04-01T07:20:22;100316.50;;;16.63;100.00
33404;BME280;19751;40.274;18.268;2023-04-01T07:22:51;100322.38;;;16.72;100.00
33404;BME280;19751;40.274;18.268;2023-04-01T07:25:24;100311.38;;;16.79;100.00
33404;BME280;19751;40.274;18.268;2023-04-01T07:27:53;100306.28;;;16.82;100.00
33404;BME280;19751;40.274;18.268;2023-04-01T07:30:23;100302.13;;;16.92;100.00
33404;BME280;19751;40.274;18.268;2023-04-01T07:35:58;100289.81;;;17.01;100.00
33404;BME280;19751;40.274;18.268;2023-04-01T07:38:50;100298.88;;;17.06;100.00
33404;BME280;19751;40.274;18.268;2023-04-01T07:41:40;100293.06;;;17.14;100.00
33404;BME280;19751;40.274;18.268;2023-04-01T07:44:54;100304.13;;;17.25;100.00
33404;BME280;19751;40.274;18.268;2023-04-01T07:50:27;100313.31;;;17.35;100.00
33404;BME280;19751;40.274;18.268;2023-04-01T07:56:02;100321.66;;;17.46;99.21
33404;BME280;19751;40.274;18.268;2023-04-01T08:17:58;100322.53;;;17.63;97.14
33404;BME280;19751;40.274;18.268;2023-04-01T08:23:11;100329.13;;;17.67;92.71
33404;BME280;19751;40.274;18.268;2023-04-01T08:26:05;100323.75;;;17.72;93.47
33404;BME280;19751;40.274;18.268;2023-04-01T08:28:41;100321.06;;;17.89;90.53
33404;BME280;19751;40.274;18.268;2023-04-01T08:31:12;100320.41;;;17.99;89.86
33404;BME280;19751;40.274;18.268;2023-04-01T08:33:41;100322.13;;;18.05;90.07
33404;BME280;19751;40.274;18.268;2023-04-01T08:38:42;100327.72;;;18.15;88.32
33404;BME280;19751;40.274;18.268;2023-04-01T08:54:54;100324.44;;;18.30;87.89
33404;BME280;19751;40.274;18.268;2023-04-01T09:02:51;100334.56;;;18.34;87.39
33404;BME280;19751;40.274;18.268;2023-04-01T09:16:27;100330.50;;;18.54;86.55
33404;BME280;19751;40.274;18.268;2023-04-01T09:22:28;100323.66;;;18.73;81.13
33404;BME280;19751;40.274;18.268;2023-04-01T09:30:38;100326.25;;;19.07;77.02
33404;BME280;19751;40.274;18.268;2023-04-01T09:35:47;100326.47;;;19.27;73.37
33404;BME280;19751;40.274;18.268;2023-04-01T09:41:30;100347.72;;;19.20;71.76
33404;BME280;19751;40.274;18.268;2023-04-01T09:44:36;100343.44;;;19.07;72.65
33404;BME280;19751;40.274;18.268;2023-04-01T10:15:50;100307.03;;;19.46;65.58
33404;BME280;19751;40.274;18.268;2023-04-01T10:27:16;100271.28;;;19.79;63.65
33404;BME280;19751;40.274;18.268;2023-04-01T10:44:17;100267.75;;;19.84;60.49
33404;BME280;19751;40.274;18.268;2023-04-01T10:47:08;100256.63;;;19.96;59.90
33404;BME280;19751;40.274;18.268;2023-04-01T10:50:14;100261.28;;;19.95;62.26
33404;BME280;19751;40.274;18.268;2023-04-01T11:07:50;100273.50;;;20.30;57.01
33404;BME280;19751;40.274;18.268;2023-04-01T11:27:04;100293.53;;;19.98;58.20
33404;BME280;19751;40.274;18.268;2023-04-01T11:30:25;100282.03;;;19.91;58.43
33404;BME280;19751;40.274;18.268;2023-04-01T11:46:56;100287.34;;;20.13;58.56
33404;BME280;19751;40.274;18.268;2023-04-01T12:00:51;100318.84;;;19.56;59.07
33404;BME280;19751;40.274;18.268;2023-04-01T12:09:28;100314.97;;;19.20;63.93
33404;BME280;19751;40.274;18.268;2023-04-01T12:20:26;100318.19;;;19.17;65.18
33404;BME280;19751;40.274;18.268;2023-04-01T12:28:59;100317.69;;;18.98;66.79
33404;BME280;19751;40.274;18.268;2023-04-01T12:31:45;100333.75;;;18.95;67.28
33404;BME280;19751;40.274;18.268;2023-04-01T12:44:37;100301.22;;;18.88;66.50
33404;BME280;19751;40.274;18.268;2023-04-01T12:48:08;100314.09;;;18.93;66.69
33404;BME280;19751;40.274;18.268;2023-04-01T12:53:23;100313.59;;;18.96;67.52
33404;BME280;19751;40.274;18.268;2023-04-01T12:55:59;100308.13;;;18.96;67.83
33404;BME280;19751;40.274;18.268;2023-04-01T13:06:49;100310.00;;;19.17;66.37
33404;BME280;19751;40.274;18.268;2023-04-01T13:12:39;100297.16;;;19.45;64.50
33404;BME280;19751;40.274;18.268;2023-04-01T13:15:20;100296.25;;;19.61;63.85
33404;BME280;19751;40.274;18.268;2023-04-01T13:23:24;100291.72;;;20.09;60.79
33404;BME280;19751;40.274;18.268;2023-04-01T13:25:54;100287.63;;;20.11;60.25
33404;BME280;19751;40.274;18.268;2023-04-01T13:28:30;100293.72;;;20.24;59.91
33404;BME280;19751;40.274;18.268;2023-04-01T13:33:47;100299.25;;;20.34;59.10
33404;BME280;19751;40.274;18.268;2023-04-01T13:36:41;100297.81;;;20.26;59.00
33404;BME280;19751;40.274;18.268;2023-04-01T13:45:12;100307.59;;;19.75;60.34
33404;BME280;19751;40.274;18.268;2023-04-01T13:56:07;100324.28;;;19.24;63.83
33404;BME280;19751;40.274;18.268;2023-04-01T14:01:41;100319.78;;;19.13;64.43
33404;BME280;19751;40.274;18.268;2023-04-01T14:04:44;100319.28;;;19.16;64.12
33404;BME280;19751;40.274;18.268;2023-04-01T14:12:57;100312.56;;;19.56;61.79
33404;BME280;19751;40.274;18.268;2023-04-01T14:15:41;100308.94;;;19.77;61.97
33404;BME280;19751;40.274;18.268;2023-04-01T14:29:20;100318.44;;;19.70;67.05
33404;BME280;19751;40.274;18.268;2023-04-01T14:32:07;100317.50;;;19.59;69.47
33404;BME280;19751;40.274;18.268;2023-04-01T14:51:37;100303.59;;;19.60;68.36
33404;BME280;19751;40.274;18.268;2023-04-01T14:54:16;100306.84;;;19.57;68.39
33404;BME280;19751;40.274;18.268;2023-04-01T14:56:50;100312.00;;;19.54;68.91
33404;BME280;19751;40.274;18.268;2023-04-01T15:04:50;100314.91;;;19.42;67.65
33404;BME280;19751;40.274;18.268;2023-04-01T15:12:41;100324.78;;;19.21;70.51
33404;BME280;19751;40.274;18.268;2023-04-01T15:20:55;100320.69;;;18.97;72.47
33404;BME280;19751;40.274;18.268;2023-04-01T15:26:11;100331.78;;;18.90;74.48
33404;BME280;19751;40.274;18.268;2023-04-01T15:41:51;100325.06;;;18.98;78.39
33404;BME280;19751;40.274;18.268;2023-04-01T15:44:46;100322.97;;;19.05;77.75
33404;BME280;19751;40.274;18.268;2023-04-01T15:47:32;100334.97;;;19.04;77.74
33404;BME280;19751;40.274;18.268;2023-04-01T15:53:03;100332.09;;;18.94;77.76
33404;BME280;19751;40.274;18.268;2023-04-01T15:56:07;100320.00;;;18.84;79.34
33404;BME280;19751;40.274;18.268;2023-04-01T16:01:34;100313.56;;;18.74;82.43
33404;BME280;19751;40.274;18.268;2023-04-01T16:07:30;100325.34;;;18.57;84.70
33404;BME280;19751;40.274;18.268;2023-04-01T16:13:22;100325.38;;;18.41;86.06
33404;BME280;19751;40.274;18.268;2023-04-01T16:26:53;100327.81;;;18.20;90.17
33404;BME280;19751;40.274;18.268;2023-04-01T16:32:50;100332.03;;;18.11;91.45
33404;BME280;19751;40.274;18.268;2023-04-01T16:37:52;100332.22;;;18.04;91.57
33404;BME280;19751;40.274;18.268;2023-04-01T16:48:17;100326.84;;;17.93;90.04
33404;BME280;19751;40.274;18.268;2023-04-01T16:51:22;100330.06;;;17.89;89.77
33404;BME280;19751;40.274;18.268;2023-04-01T16:54:13;100336.00;;;17.86;89.49
33404;BME280;19751;40.274;18.268;2023-04-01T16:56:52;100328.34;;;17.83;89.32
33404;BME280;19751;40.274;18.268;2023-04-01T17:15:28;100345.03;;;17.58;92.45
33404;BME280;19751;40.274;18.268;2023-04-01T17:20:40;100332.13;;;17.54;93.01
33404;BME280;19751;40.274;18.268;2023-04-01T17:26:23;100334.78;;;17.49;93.96
33404;BME280;19751;40.274;18.268;2023-04-01T17:29:22;100331.97;;;17.44;94.74
33404;BME280;19751;40.274;18.268;2023-04-01T17:34:27;100338.28;;;17.32;95.75
33404;BME280;19751;40.274;18.268;2023-04-01T17:40:06;100337.03;;;17.23;97.38
33404;BME280;19751;40.274;18.268;2023-04-01T17:42:55;100326.41;;;17.22;97.37
33404;BME280;19751;40.274;18.268;2023-04-01T17:45:44;100334.78;;;17.20;97.20
33404;BME280;19751;40.274;18.268;2023-04-01T17:48:46;100346.19;;;17.17;97.18
33404;BME280;19751;40.274;18.268;2023-04-01T18:21:14;100350.41;;;16.84;99.92
33404;BME280;19751;40.274;18.268;2023-04-01T18:23:53;100347.56;;;16.79;100.00
33404;BME280;19751;40.274;18.268;2023-04-01T18:26:23;100342.28;;;16.73;100.00
33404;BME280;19751;40.274;18.268;2023-04-01T18:31:46;100354.06;;;16.66;100.00
33404;BME280;19751;40.274;18.268;2023-04-01T18:37:18;100352.31;;;16.60;100.00
33404;BME280;19751;40.274;18.268;2023-04-01T18:45:30;100351.75;;;16.47;100.00
33404;BME280;19751;40.274;18.268;2023-04-01T18:48:00;100355.28;;;16.47;100.00
33404;BME280;19751;40.274;18.268;2023-04-01T18:55:56;100361.19;;;16.44;100.00
33404;BME280;19751;40.274;18.268;2023-04-01T19:01:12;100367.91;;;16.41;100.00
33404;BME280;19751;40.274;18.268;2023-04-01T19:03:55;100376.06;;;16.41;100.00
33404;BME280;19751;40.274;18.268;2023-04-01T19:06:30;100367.34;;;16.39;100.00
33404;BME280;19751;40.274;18.268;2023-04-01T19:09:00;100364.84;;;16.38;100.00
33404;BME280;19751;40.274;18.268;2023-04-01T19:12:12;100369.69;;;16.36;100.00
33404;BME280;19751;40.274;18.268;2023-04-01T19:20:20;100368.78;;;16.30;100.00
33404;BME280;19751;40.274;18.268;2023-04-01T19:25:44;100366.41;;;16.22;100.00
33404;BME280;19751;40.274;18.268;2023-04-01T19:31:20;100366.88;;;16.19;100.00
33404;BME280;19751;40.274;18.268;2023-04-01T19:33:58;100365.44;;;16.16;100.00
33404;BME280;19751;40.274;18.268;2023-04-01T19:37:05;100363.06;;;16.08;100.00
33404;BME280;19751;40.274;18.268;2023-04-01T19:45:18;100367.03;;;15.82;100.00
33404;BME280;19751;40.274;18.268;2023-04-01T19:51:07;100359.47;;;15.73;100.00
33404;BME280;19751;40.274;18.268;2023-04-01T19:56:21;100361.66;;;15.64;100.00
33404;BME280;19751;40.274;18.268;2023-04-01T20:05:45;100360.31;;;15.73;100.00
33404;BME280;19751;40.274;18.268;2023-04-01T20:11:12;100350.75;;;15.82;96.55
33404;BME280;19751;40.274;18.268;2023-04-01T20:14:03;100352.19;;;15.85;93.50
33404;BME280;19751;40.274;18.268;2023-04-01T20:19:41;100358.44;;;15.85;89.13
33404;BME280;19751;40.274;18.268;2023-04-01T20:24:59;100365.16;;;15.83;86.99
33404;BME280;19751;40.274;18.268;2023-04-01T20:27:32;100364.09;;;15.84;87.27
33404;BME280;19751;40.274;18.268;2023-04-01T20:36:28;100356.78;;;15.84;85.87
33404;BME280;19751;40.274;18.268;2023-04-01T20:45:12;100356.63;;;15.79;86.15
33404;BME280;19751;40.274;18.268;2023-04-01T20:48:11;100350.03;;;15.75;86.25
33404;BME280;19751;40.274;18.268;2023-04-01T21:22:54;100351.34;;;15.54;93.41
33404;BME280;19751;40.274;18.268;2023-04-01T21:28:20;100351.69;;;15.46;98.93
33404;BME280;19751;40.274;18.268;2023-04-01T21:39:12;100339.25;;;15.38;100.00
33404;BME280;19751;40.274;18.268;2023-04-01T21:42:13;100337.72;;;15.31;100.00
33404;BME280;19751;40.274;18.268;2023-04-01T21:58:58;100324.09;;;15.19;100.00
33404;BME280;19751;40.274;18.268;2023-04-01T22:04:39;100308.72;;;15.13;100.00
33404;BME280;19751;40.274;18.268;2023-04-01T22:07:11;100308.72;;;15.13;100.00
33404;BME280;19751;40.274;18.268;2023-04-01T22:09:50;100303.31;;;15.13;100.00
33404;BME280;19751;40.274;18.268;2023-04-01T22:20:47;100295.97;;;15.02;100.00
33404;BME280;19751;40.274;18.268;2023-04-01T22:23:28;100296.66;;;14.97;100.00
33404;BME280;19751;40.274;18.268;2023-04-01T22:26:23;100302.53;;;14.94;100.00
33404;BME280;19751;40.274;18.268;2023-04-01T22:31:42;100286.03;;;14.96;100.00
33404;BME280;19751;40.274;18.268;2023-04-01T22:34:23;100274.81;;;14.92;100.00
33404;BME280;19751;40.274;18.268;2023-04-01T22:37:14;100275.63;;;14.92;100.00
33404;BME280;19751;40.274;18.268;2023-04-01T22:42:45;100272.56;;;14.89;100.00
33404;BME280;19751;40.274;18.268;2023-04-01T22:56:23;100264.50;;;14.82;100.00
33404;BME280;19751;40.274;18.268;2023-04-01T22:58:59;100264.28;;;14.84;100.00
33404;BME280;19751;40.274;18.268;2023-04-01T23:01:32;100264.50;;;14.82;100.00
33404;BME280;19751;40.274;18.268;2023-04-01T23:03:59;100266.59;;;14.80;100.00
33404;BME280;19751;40.274;18.268;2023-04-01T23:06:28;100256.81;;;14.79;100.00
33404;BME280;19751;40.274;18.268;2023-04-01T23:09:06;100254.56;;;14.76;100.00
33404;BME280;19751;40.274;18.268;2023-04-01T23:11:55;100269.19;;;14.75;100.00
33404;BME280;19751;40.274;18.268;2023-04-01T23:17:16;100264.81;;;14.74;100.00
33404;BME280;19751;40.274;18.268;2023-04-01T23:19:52;100251.28;;;14.74;100.00
33404;BME280;19751;40.274;18.268;2023-04-01T23:22:42;100255.03;;;14.73;100.00
33404;BME280;19751;40.274;18.268;2023-04-01T23:25:25;100256.94;;;14.73;100.00
33404;BME280;19751;40.274;18.268;2023-04-01T23:28:16;100256.94;;;14.73;100.00
33404;BME280;19751;40.274;18.268;2023-04-01T23:33:22;100272.69;;;14.64;100.00
33404;BME280;19751;40.274;18.268;2023-04-01T23:36:11;100266.88;;;14.60;100.00
33404;BME280;19751;40.274;18.268;2023-04-01T23:38:40;100269.81;;;14.59;100.00
33404;BME280;19751;40.274;18.268;2023-04-01T23:41:21;100269.44;;;14.55;100.00
33404;BME280;19751;40.274;18.268;2023-04-01T23:43:55;100272.38;;;14.54;100.00
33404;BME280;19751;40.274;18.268;2023-04-01T23:46:21;100268.84;;;14.53;100.00